sensor_id;sensor_type;location;lat;lon;timestamp;pressure;altitude;pressure_sealevel;temperature;humidity
28428;BME280;15662;49.128;8.520;2023-02-15T00:00:13;101968.00;;;8.60;53.06
28428;BME280;15662;49.128;8.520;2023-02-15T00:02:44;101957.41;;;8.57;53.02
28428;BME280;15662;49.128;8.520;2023-02-15T00:05:12;101966.28;;;8.63;53.11
28428;BME280;15662;49.128;8.520;2023-02-15T00:07:40;101966.28;;;8.65;52.86
28428;BME280;15662;49.128;8.520;2023-02-15T00:10:09;101962.78;;;8.67;52.92
28428;BME280;15662;49.128;8.520;2023-02-15T00:12:38;101957.47;;;8.64;52.52
28428;BME280;15662;49.128;8.520;2023-02-15T00:15:06;101954.78;;;8.61;52.96
28428;BME280;15662;49.128;8.520;2023-02-15T00:17:34;101953.03;;;8.60;52.79
28428;BME280;15662;49.128;8.520;2023-02-15T00:20:02;101941.53;;;8.53;52.97
28428;BME280;15662;49.128;8.520;2023-02-15T00:22:30;101950.38;;;8.60;52.89
28428;BME280;15662;49.128;8.520;2023-02-15T00:24:58;101951.25;;;8.61;52.42
28428;BME280;15662;49.128;8.520;2023-02-15T00:27:26;101944.22;;;8.61;52.47
28428;BME280;15662;49.128;8.520;2023-02-15T00:29:53;101946.00;;;8.64;52.52
28428;BME280;15662;49.128;8.520;2023-02-15T00:32:22;101938.97;;;8.63;52.36
28428;BME280;15662;49.128;8.520;2023-02-15T00:34:49;101938.97;;;8.63;52.65
28428;BME280;15662;49.128;8.520;2023-02-15T00:37:17;101949.53;;;8.63;52.32
28428;BME280;15662;49.128;8.520;2023-02-15T00:39:47;101943.38;;;8.64;52.28
28428;BME280;15662;49.128;8.520;2023-02-15T00:42:15;101937.19;;;8.65;52.15
28428;BME280;15662;49.128;8.520;2023-02-15T00:44:43;101942.44;;;8.62;52.67
28428;BME280;15662;49.128;8.520;2023-02-15T00:47:11;101930.13;;;8.59;52.27
28428;BME280;15662;49.128;8.520;2023-02-15T00:49:39;101939.88;;;8.68;52.51
28428;BME280;15662;49.128;8.520;2023-02-15T00:52:06;101938.13;;;8.68;52.48
28428;BME280;15662;49.128;8.520;2023-02-15T00:54:35;101941.63;;;8.67;52.51
28428;BME280;15662;49.128;8.520;2023-02-15T00:57:04;101935.44;;;8.67;52.19
28428;BME280;15662;49.128;8.520;2023-02-15T00:59:32;101937.25;;;8.68;52.04
28428;BME280;15662;49.128;8.520;2023-02-15T01:01:59;101940.75;;;8.71;52.45
28428;BME280;15662;49.128;8.520;2023-02-15T01:04:29;101941.69;;;8.72;52.66
28428;BME280;15662;49.128;8.520;2023-02-15T01:06:57;101927.53;;;8.70;52.42
28428;BME280;15662;49.128;8.520;2023-02-15T01:09:25;101936.38;;;8.72;52.38
28428;BME280;15662;49.128;8.520;2023-02-15T01:11:53;101932.88;;;8.73;52.79
28428;BME280;15662;49.128;8.520;2023-02-15T01:14:21;101932.88;;;8.73;52.57
28428;BME280;15662;49.128;8.520;2023-02-15T01:16:49;101940.78;;;8.76;52.32
28428;BME280;15662;49.128;8.520;2023-02-15T01:19:17;101941.69;;;8.73;52.19
28428;BME280;15662;49.128;8.520;2023-02-15T01:21:45;101939.00;;;8.70;52.57
28428;BME280;15662;49.128;8.520;2023-02-15T01:24:14;101938.13;;;8.70;52.55
28428;BME280;15662;49.128;8.520;2023-02-15T01:26:42;101942.53;;;8.69;52.08
28428;BME280;15662;49.128;8.520;2023-02-15T01:29:09;101943.38;;;8.64;52.38
28428;BME280;15662;49.128;8.520;2023-02-15T01:31:37;101948.69;;;8.68;52.49
28428;BME280;15662;49.128;8.520;2023-02-15T01:34:07;101935.44;;;8.65;52.21
28428;BME280;15662;49.128;8.520;2023-02-15T01:36:34;101936.31;;;8.64;52.59
28428;BME280;15662;49.128;8.520;2023-02-15T01:39:02;101931.91;;;8.63;52.12
28428;BME280;15662;49.128;8.520;2023-02-15T01:41:31;101931.06;;;8.67;52.24
28428;BME280;15662;49.128;8.520;2023-02-15T01:44:03;101932.84;;;8.70;52.64
28428;BME280;15662;49.128;8.520;2023-02-15T01:49:15;101929.31;;;8.71;52.47
28428;BME280;15662;49.128;8.520;2023-02-15T01:51:46;101941.66;;;8.70;52.25
28428;BME280;15662;49.128;8.520;2023-02-15T01:54:31;101933.75;;;8.73;52.16
28428;BME280;15662;49.128;8.520;2023-02-15T01:57:10;101921.38;;;8.71;52.38
28428;BME280;15662;49.128;8.520;2023-02-15T01:59:42;101911.69;;;8.70;52.33
28428;BME280;15662;49.128;8.520;2023-02-15T02:02:13;101901.06;;;8.65;52.49
28428;BME280;15662;49.128;8.520;2023-02-15T02:04:50;101923.16;;;8.75;52.15
28428;BME280;15662;49.128;8.520;2023-02-15T02:07:26;101905.53;;;8.75;52.70
28428;BME280;15662;49.128;8.520;2023-02-15T02:09:54;101909.06;;;8.76;52.34
28428;BME280;15662;49.128;8.520;2023-02-15T02:12:24;101899.38;;;8.73;52.27
28428;BME280;15662;49.128;8.520;2023-02-15T02:14:53;101907.34;;;8.78;52.22
28428;BME280;15662;49.128;8.520;2023-02-15T02:26:44;101904.69;;;8.79;52.70
28428;BME280;15662;49.128;8.520;2023-02-15T02:33:02;101896.75;;;8.78;52.48
28428;BME280;15662;49.128;8.520;2023-02-15T02:41:48;101894.97;;;8.74;52.45
28428;BME280;15662;49.128;8.520;2023-02-15T02:44:29;101887.88;;;8.70;52.74
28428;BME280;15662;49.128;8.520;2023-02-15T02:49:39;101877.28;;;8.67;52.57
28428;BME280;15662;49.128;8.520;2023-02-15T02:52:38;101872.00;;;8.62;52.84
28428;BME280;15662;49.128;8.520;2023-02-15T02:55:37;101854.28;;;8.52;52.55
28428;BME280;15662;49.128;8.520;2023-02-15T02:58:29;101871.06;;;8.56;52.90
28428;BME280;15662;49.128;8.520;2023-02-15T03:01:15;101867.53;;;8.53;52.76
28428;BME280;15662;49.128;8.520;2023-02-15T03:03:56;101868.38;;;8.48;53.00
28428;BME280;15662;49.128;8.520;2023-02-15T03:09:29;101871.94;;;8.53;53.19
28428;BME280;15662;49.128;8.520;2023-02-15T03:12:19;101863.13;;;8.52;52.87
28428;BME280;15662;49.128;8.520;2023-02-15T03:15:10;101869.28;;;8.55;52.90
28428;BME280;15662;49.128;8.520;2023-02-15T03:18:17;101861.31;;;8.45;52.84
28428;BME280;15662;49.128;8.520;2023-02-15T03:20:38;101872.78;;;8.52;53.33
28428;BME280;15662;49.128;8.520;2023-02-15T03:23:22;101870.13;;;8.49;52.69
28428;BME280;15662;49.128;8.520;2023-02-15T03:26:00;101878.06;;;8.50;52.79
28428;BME280;15662;49.128;8.520;2023-02-15T03:28:42;101866.59;;;8.47;52.72
28428;BME280;15662;49.128;8.520;2023-02-15T03:31:12;101870.09;;;8.46;52.93
28428;BME280;15662;49.128;8.520;2023-02-15T03:33:54;101860.38;;;8.42;52.88
28428;BME280;15662;49.128;8.520;2023-02-15T03:37:05;101870.06;;;8.38;52.85
28428;BME280;15662;49.128;8.520;2023-02-15T03:42:32;101874.41;;;8.35;53.13
28428;BME280;15662;49.128;8.520;2023-02-15T03:45:11;101879.72;;;8.36;53.12
28428;BME280;15662;49.128;8.520;2023-02-15T03:47:47;101882.44;;;8.42;52.93
28428;BME280;15662;49.128;8.520;2023-02-15T03:50:24;101884.19;;;8.46;53.12
28428;BME280;15662;49.128;8.520;2023-02-15T03:53:16;101885.09;;;8.44;52.83
28428;BME280;15662;49.128;8.520;2023-02-15T03:55:53;101882.44;;;8.44;53.00
28428;BME280;15662;49.128;8.520;2023-02-15T03:58:23;101885.97;;;8.43;52.83
28428;BME280;15662;49.128;8.520;2023-02-15T04:01:34;101885.97;;;8.44;52.95
28428;BME280;15662;49.128;8.520;2023-02-15T04:04:39;101882.41;;;8.41;52.94
28428;BME280;15662;49.128;8.520;2023-02-15T04:07:09;101874.41;;;8.35;52.98
28428;BME280;15662;49.128;8.520;2023-02-15T04:09:37;101868.25;;;8.34;53.16
28428;BME280;15662;49.128;8.520;2023-02-15T04:12:24;101878.00;;;8.38;52.94
28428;BME280;15662;49.128;8.520;2023-02-15T04:14:52;101877.16;;;8.44;52.74
28428;BME280;15662;49.128;8.520;2023-02-15T04:17:38;101880.69;;;8.43;52.82
28428;BME280;15662;49.128;8.520;2023-02-15T04:20:08;101874.50;;;8.45;52.95
28428;BME280;15662;49.128;8.520;2023-02-15T04:22:55;101872.75;;;8.43;53.16
28428;BME280;15662;49.128;8.520;2023-02-15T04:25:41;101872.69;;;8.37;52.90
28428;BME280;15662;49.128;8.520;2023-02-15T04:28:09;101867.34;;;8.35;52.77
28428;BME280;15662;49.128;8.520;2023-02-15T04:30:37;101857.63;;;8.31;52.53
28428;BME280;15662;49.128;8.520;2023-02-15T04:33:05;101852.31;;;8.26;52.97
28428;BME280;15662;49.128;8.520;2023-02-15T04:35:33;101855.84;;;8.25;53.29
28428;BME280;15662;49.128;8.520;2023-02-15T04:38:01;101845.22;;;8.18;52.75
28428;BME280;15662;49.128;8.520;2023-02-15T04:40:29;101856.72;;;8.24;53.04
28428;BME280;15662;49.128;8.520;2023-02-15T04:42:57;101851.44;;;8.23;53.00
28428;BME280;15662;49.128;8.520;2023-02-15T04:45:25;101854.97;;;8.23;52.72
28428;BME280;15662;49.128;8.520;2023-02-15T04:47:55;101855.84;;;8.25;53.29
28428;BME280;15662;49.128;8.520;2023-02-15T04:50:23;101848.75;;;8.21;53.37
28428;BME280;15662;49.128;8.520;2023-02-15T04:52:51;101860.28;;;8.31;52.71
28428;BME280;15662;49.128;8.520;2023-02-15T04:55:19;101855.91;;;8.33;52.98
28428;BME280;15662;49.128;8.520;2023-02-15T04:57:46;101852.38;;;8.36;53.03
28428;BME280;15662;49.128;8.520;2023-02-15T05:00:15;101865.63;;;8.37;53.20
28428;BME280;15662;49.128;8.520;2023-02-15T05:02:43;101837.38;;;8.28;52.61
28428;BME280;15662;49.128;8.520;2023-02-15T05:05:11;101851.47;;;8.32;53.16
28428;BME280;15662;49.128;8.520;2023-02-15T05:07:40;101855.88;;;8.30;53.45
28428;BME280;15662;49.128;8.520;2023-02-15T05:10:09;101850.59;;;8.28;53.40
28428;BME280;15662;49.128;8.520;2023-02-15T05:12:37;101849.66;;;8.23;52.79
28428;BME280;15662;49.128;8.520;2023-02-15T05:15:05;101863.78;;;8.28;53.03
28428;BME280;15662;49.128;8.520;2023-02-15T05:17:33;101853.19;;;8.25;53.22
28428;BME280;15662;49.128;8.520;2023-02-15T05:20:01;101856.75;;;8.27;52.97
28428;BME280;15662;49.128;8.520;2023-02-15T05:22:29;101847.91;;;8.24;52.80
28428;BME280;15662;49.128;8.520;2023-02-15T05:24:57;101848.78;;;8.23;53.00
28428;BME280;15662;49.128;8.520;2023-02-15T05:27:43;101861.13;;;8.25;52.77
28428;BME280;15662;49.128;8.520;2023-02-15T05:30:32;101861.13;;;8.24;53.01
28428;BME280;15662;49.128;8.520;2023-02-15T05:33:00;101855.84;;;8.25;52.76
28428;BME280;15662;49.128;8.520;2023-02-15T05:35:28;101858.47;;;8.24;53.26
28428;BME280;15662;49.128;8.520;2023-02-15T05:37:55;101848.75;;;8.18;53.20
28428;BME280;15662;49.128;8.520;2023-02-15T05:40:23;101851.44;;;8.24;52.84
28428;BME280;15662;49.128;8.520;2023-02-15T05:42:51;101857.59;;;8.26;52.94
28428;BME280;15662;49.128;8.520;2023-02-15T05:45:19;101853.19;;;8.24;53.28
28428;BME280;15662;49.128;8.520;2023-02-15T05:47:47;101862.91;;;8.30;53.06
28428;BME280;15662;49.128;8.520;2023-02-15T05:50:15;101854.06;;;8.26;53.16
28428;BME280;15662;49.128;8.520;2023-02-15T05:52:43;101854.91;;;8.22;52.69
28428;BME280;15662;49.128;8.520;2023-02-15T05:55:11;101862.88;;;8.25;53.02
28428;BME280;15662;49.128;8.520;2023-02-15T05:57:40;101861.97;;;8.21;53.10
28428;BME280;15662;49.128;8.520;2023-02-15T06:00:09;101865.56;;;8.28;53.30
28428;BME280;15662;49.128;8.520;2023-02-15T06:02:40;101863.78;;;8.28;52.96
28428;BME280;15662;49.128;8.520;2023-02-15T06:05:08;101863.81;;;8.30;52.61
28428;BME280;15662;49.128;8.520;2023-02-15T06:07:36;101872.59;;;8.32;52.86
28428;BME280;15662;49.128;8.520;2023-02-15T06:10:05;101872.59;;;8.31;52.72
28428;BME280;15662;49.128;8.520;2023-02-15T06:12:34;101873.53;;;8.34;52.63
28428;BME280;15662;49.128;8.520;2023-02-15T06:15:03;101875.28;;;8.34;52.39
28428;BME280;15662;49.128;8.520;2023-02-15T06:17:32;101856.69;;;8.20;52.35
28428;BME280;15662;49.128;8.520;2023-02-15T06:20:00;101864.56;;;8.17;52.64
28428;BME280;15662;49.128;8.520;2023-02-15T06:22:28;101878.66;;;8.17;52.50
28428;BME280;15662;49.128;8.520;2023-02-15T06:24:56;101873.31;;;8.10;52.54
28428;BME280;15662;49.128;8.520;2023-02-15T06:27:23;101866.22;;;8.02;52.75
28428;BME280;15662;49.128;8.520;2023-02-15T06:29:51;101884.72;;;8.07;53.11
28428;BME280;15662;49.128;8.520;2023-02-15T06:32:19;101890.91;;;8.06;52.87
28428;BME280;15662;49.128;8.520;2023-02-15T06:34:47;101890.81;;;7.97;53.33
28428;BME280;15662;49.128;8.520;2023-02-15T06:37:15;101895.22;;;7.96;53.11
28428;BME280;15662;49.128;8.520;2023-02-15T06:39:46;101892.53;;;7.90;53.00
28428;BME280;15662;49.128;8.520;2023-02-15T06:42:15;101893.44;;;7.97;52.86
28428;BME280;15662;49.128;8.520;2023-02-15T06:44:45;101911.84;;;7.86;53.21
28428;BME280;15662;49.128;8.520;2023-02-15T06:47:13;101911.91;;;7.94;52.99
28428;BME280;15662;49.128;8.520;2023-02-15T06:49:41;101911.97;;;8.00;52.92
28428;BME280;15662;49.128;8.520;2023-02-15T06:52:10;101893.44;;;7.95;53.33
28428;BME280;15662;49.128;8.520;2023-02-15T06:54:40;101910.22;;;7.99;53.14
28428;BME280;15662;49.128;8.520;2023-02-15T06:57:08;101890.81;;;7.97;53.48
28428;BME280;15662;49.128;8.520;2023-02-15T06:59:36;101895.25;;;8.02;53.16
28428;BME280;15662;49.128;8.520;2023-02-15T07:02:05;101894.38;;;8.02;53.19
28428;BME280;15662;49.128;8.520;2023-02-15T07:04:36;101890.81;;;7.97;53.30
28428;BME280;15662;49.128;8.520;2023-02-15T07:07:11;101907.63;;;8.05;53.13
28428;BME280;15662;49.128;8.520;2023-02-15T07:09:39;101907.66;;;8.10;53.25
28428;BME280;15662;49.128;8.520;2023-02-15T07:12:09;101897.06;;;8.05;53.31
28428;BME280;15662;49.128;8.520;2023-02-15T07:14:55;101900.63;;;8.12;52.61
28428;BME280;15662;49.128;8.520;2023-02-15T07:17:26;101907.69;;;8.14;52.95
28428;BME280;15662;49.128;8.520;2023-02-15T07:20:07;101906.78;;;8.12;52.72
28428;BME280;15662;49.128;8.520;2023-02-15T07:22:38;101892.69;;;8.09;52.90
28428;BME280;15662;49.128;8.520;2023-02-15T07:25:09;101912.09;;;8.15;53.26
28428;BME280;15662;49.128;8.520;2023-02-15T07:27:37;101897.97;;;8.12;52.97
28428;BME280;15662;49.128;8.520;2023-02-15T07:30:08;101899.78;;;8.17;52.78
28428;BME280;15662;49.128;8.520;2023-02-15T07:32:39;101911.28;;;8.21;53.19
28428;BME280;15662;49.128;8.520;2023-02-15T07:35:34;101910.38;;;8.19;52.84
28428;BME280;15662;49.128;8.520;2023-02-15T07:38:02;101907.75;;;8.20;53.25
28428;BME280;15662;49.128;8.520;2023-02-15T07:40:30;101909.47;;;8.17;52.91
28428;BME280;15662;49.128;8.520;2023-02-15T07:42:58;101915.69;;;8.19;53.16
28428;BME280;15662;49.128;8.520;2023-02-15T07:45:27;101904.19;;;8.17;53.32
28428;BME280;15662;49.128;8.520;2023-02-15T07:47:54;101913.00;;;8.17;53.34
28428;BME280;15662;49.128;8.520;2023-02-15T07:50:22;101906.88;;;8.18;53.51
28428;BME280;15662;49.128;8.520;2023-02-15T07:52:50;101900.69;;;8.18;53.12
28428;BME280;15662;49.128;8.520;2023-02-15T07:55:18;101900.66;;;8.16;52.94
28428;BME280;15662;49.128;8.520;2023-02-15T07:57:49;101905.09;;;8.19;53.14
28428;BME280;15662;49.128;8.520;2023-02-15T08:00:19;101899.78;;;8.17;53.10
28428;BME280;15662;49.128;8.520;2023-02-15T08:02:55;101897.09;;;8.11;53.11
28428;BME280;15662;49.128;8.520;2023-02-15T08:05:44;101905.94;;;8.16;53.24
28428;BME280;15662;49.128;8.520;2023-02-15T08:08:12;101900.66;;;8.15;53.24
28428;BME280;15662;49.128;8.520;2023-02-15T08:14:05;101890.06;;;8.10;52.95
28428;BME280;15662;49.128;8.520;2023-02-15T08:16:42;101893.63;;;8.15;52.94
28428;BME280;15662;49.128;8.520;2023-02-15T08:19:19;101896.25;;;8.15;53.43
28428;BME280;15662;49.128;8.520;2023-02-15T08:24:22;101896.25;;;8.15;53.18
28428;BME280;15662;49.128;8.520;2023-02-15T08:26:51;101886.56;;;8.13;53.06
28428;BME280;15662;49.128;8.520;2023-02-15T08:29:24;101896.31;;;8.18;53.08
28428;BME280;15662;49.128;8.520;2023-02-15T08:31:56;101880.41;;;8.17;53.54
28428;BME280;15662;49.128;8.520;2023-02-15T08:34:33;101890.16;;;8.22;53.28
28428;BME280;15662;49.128;8.520;2023-02-15T08:37:02;101877.84;;;8.23;53.36
28428;BME280;15662;49.128;8.520;2023-02-15T08:39:30;101880.50;;;8.23;53.34
28428;BME280;15662;49.128;8.520;2023-02-15T08:41:57;101885.78;;;8.23;53.37
28428;BME280;15662;49.128;8.520;2023-02-15T08:44:28;101875.13;;;8.17;52.69
28428;BME280;15662;49.128;8.520;2023-02-15T08:46:58;101883.94;;;8.16;53.21
28428;BME280;15662;49.128;8.520;2023-02-15T08:49:31;101882.22;;;8.18;53.04
28428;BME280;15662;49.128;8.520;2023-02-15T08:52:01;101880.41;;;8.17;53.46
28428;BME280;15662;49.128;8.520;2023-02-15T08:54:29;101883.06;;;8.15;53.20
28428;BME280;15662;49.128;8.520;2023-02-15T08:56:57;101878.59;;;8.10;53.46
28428;BME280;15662;49.128;8.520;2023-02-15T08:59:44;101874.22;;;8.12;53.07
28428;BME280;15662;49.128;8.520;2023-02-15T09:02:14;101880.41;;;8.17;53.02
28428;BME280;15662;49.128;8.520;2023-02-15T09:04:42;101877.84;;;8.23;53.03
28428;BME280;15662;49.128;8.520;2023-02-15T09:07:10;101863.72;;;8.21;53.05
28428;BME280;15662;49.128;8.520;2023-02-15T09:09:38;101878.78;;;8.30;52.90
28428;BME280;15662;49.128;8.520;2023-02-15T09:12:06;101877.88;;;8.31;53.04
28428;BME280;15662;49.128;8.520;2023-02-15T09:14:34;101865.56;;;8.28;52.90
28428;BME280;15662;49.128;8.520;2023-02-15T09:17:02;101870.88;;;8.34;52.86
28428;BME280;15662;49.128;8.520;2023-02-15T09:19:32;101861.19;;;8.35;52.96
28428;BME280;15662;49.128;8.520;2023-02-15T09:22:00;101870.94;;;8.39;53.11
28428;BME280;15662;49.128;8.520;2023-02-15T09:24:32;101867.44;;;8.40;52.89
28428;BME280;15662;49.128;8.520;2023-02-15T09:27:03;101862.06;;;8.35;52.99
28428;BME280;15662;49.128;8.520;2023-02-15T09:29:31;101868.31;;;8.40;52.65
28428;BME280;15662;49.128;8.520;2023-02-15T09:31:59;101863.03;;;8.40;53.32
28428;BME280;15662;49.128;8.520;2023-02-15T09:34:28;101861.19;;;8.35;52.74
28428;BME280;15662;49.128;8.520;2023-02-15T09:36:57;101854.19;;;8.37;53.17
28428;BME280;15662;49.128;8.520;2023-02-15T09:39:27;101873.63;;;8.46;52.84
28428;BME280;15662;49.128;8.520;2023-02-15T09:42:51;101860.47;;;8.52;52.59
28428;BME280;15662;49.128;8.520;2023-02-15T09:48:38;101867.50;;;8.52;52.77
28428;BME280;15662;49.128;8.520;2023-02-15T10:00:16;101862.19;;;8.44;52.55
28428;BME280;15662;49.128;8.520;2023-02-15T10:12:15;101864.06;;;8.62;52.68
28428;BME280;15662;49.128;8.520;2023-02-15T10:28:57;101865.94;;;8.86;52.61
28428;BME280;15662;49.128;8.520;2023-02-15T10:31:56;101871.31;;;8.97;52.42
28428;BME280;15662;49.128;8.520;2023-02-15T11:07:55;101838.81;;;9.32;51.88
28428;BME280;15662;49.128;8.520;2023-02-15T11:10:28;101838.84;;;9.42;51.83
28428;BME280;15662;49.128;8.520;2023-02-15T11:12:58;101841.47;;;9.42;52.20
28428;BME280;15662;49.128;8.520;2023-02-15T11:16:28;101830.88;;;9.44;51.95
28428;BME280;15662;49.128;8.520;2023-02-15T11:19:41;101830.03;;;9.48;51.78
28428;BME280;15662;49.128;8.520;2023-02-15T11:22:04;101814.13;;;9.49;52.08
28428;BME280;15662;49.128;8.520;2023-02-15T11:24:43;101817.69;;;9.67;51.48
28428;BME280;15662;49.128;8.520;2023-02-15T11:29:55;101815.06;;;9.77;51.34
28428;BME280;15662;49.128;8.520;2023-02-15T11:32:59;101814.16;;;9.78;51.01
28428;BME280;15662;49.128;8.520;2023-02-15T11:35:33;101801.81;;;9.74;51.41
28428;BME280;15662;49.128;8.520;2023-02-15T11:38:24;101795.63;;;9.74;51.14
28428;BME280;15662;49.128;8.520;2023-02-15T11:41:08;101800.06;;;9.86;51.27
28428;BME280;15662;49.128;8.520;2023-02-15T11:43:55;101795.63;;;9.88;51.19
28428;BME280;15662;49.128;8.520;2023-02-15T11:46:25;101802.69;;;9.93;51.42
28428;BME280;15662;49.128;8.520;2023-02-15T11:48:53;101797.41;;;10.02;51.17
28428;BME280;15662;49.128;8.520;2023-02-15T11:51:22;101791.22;;;10.05;51.09
28428;BME280;15662;49.128;8.520;2023-02-15T11:53:53;101777.09;;;10.03;50.77
28428;BME280;15662;49.128;8.520;2023-02-15T11:56:25;101769.16;;;9.95;51.06
28428;BME280;15662;49.128;8.520;2023-02-15T11:59:20;101748.84;;;9.97;50.72
28428;BME280;15662;49.128;8.520;2023-02-15T12:01:51;101766.47;;;10.07;50.77
28428;BME280;15662;49.128;8.520;2023-02-15T12:04:40;101758.53;;;10.11;50.16
28428;BME280;15662;49.128;8.520;2023-02-15T12:07:45;101755.91;;;10.11;50.59
28428;BME280;15662;49.128;8.520;2023-02-15T12:10:28;101754.13;;;10.08;50.54
28428;BME280;15662;49.128;8.520;2023-02-15T12:13:19;101753.22;;;10.17;50.46
28428;BME280;15662;49.128;8.520;2023-02-15T12:15:51;101753.22;;;10.27;50.65
28428;BME280;15662;49.128;8.520;2023-02-15T12:18:41;101748.78;;;10.37;50.60
28428;BME280;15662;49.128;8.520;2023-02-15T12:21:38;101744.34;;;10.44;50.45
28428;BME280;15662;49.128;8.520;2023-02-15T12:24:30;101739.91;;;10.49;50.25
28428;BME280;15662;49.128;8.520;2023-02-15T12:27:02;101741.69;;;10.51;50.34
28428;BME280;15662;49.128;8.520;2023-02-15T12:29:45;101734.59;;;10.59;50.13
28428;BME280;15662;49.128;8.520;2023-02-15T12:35:00;101720.44;;;10.57;50.09
28428;BME280;15662;49.128;8.520;2023-02-15T12:37:32;101726.63;;;10.58;50.03
28428;BME280;15662;49.128;8.520;2023-02-15T12:40:22;101723.97;;;10.58;49.93
28428;BME280;15662;49.128;8.520;2023-02-15T12:42:52;101723.09;;;10.53;50.18
28428;BME280;15662;49.128;8.520;2023-02-15T12:45:29;101722.16;;;10.66;49.66
28428;BME280;15662;49.128;8.520;2023-02-15T12:50:45;101711.56;;;10.63;49.77
28428;BME280;15662;49.128;8.520;2023-02-15T12:55:56;101721.28;;;10.67;49.26
28428;BME280;15662;49.128;8.520;2023-02-15T12:58:32;101721.31;;;10.64;49.44
28428;BME280;15662;49.128;8.520;2023-02-15T13:01:13;101720.41;;;10.64;49.45
28428;BME280;15662;49.128;8.520;2023-02-15T13:04:03;101710.78;;;10.44;50.05
28428;BME280;15662;49.128;8.520;2023-02-15T13:06:36;101706.25;;;10.63;49.84
28428;BME280;15662;49.128;8.520;2023-02-15T13:11:47;101701.00;;;10.55;49.89
28428;BME280;15662;49.128;8.520;2023-02-15T13:14:31;101693.00;;;10.63;49.60
28428;BME280;15662;49.128;8.520;2023-02-15T13:17:03;101692.13;;;10.66;49.55
28428;BME280;15662;49.128;8.520;2023-02-15T13:19:46;101678.91;;;10.59;49.26
28428;BME280;15662;49.128;8.520;2023-02-15T13:22:23;101683.38;;;10.50;49.26
28428;BME280;15662;49.128;8.520;2023-02-15T13:24:59;101665.72;;;10.43;49.50
28428;BME280;15662;49.128;8.520;2023-02-15T13:27:39;101671.91;;;10.39;49.17
28428;BME280;15662;49.128;8.520;2023-02-15T13:30:27;101677.22;;;10.37;49.02
28428;BME280;15662;49.128;8.520;2023-02-15T13:33:33;101664.00;;;10.22;48.93
28428;BME280;15662;49.128;8.520;2023-02-15T13:47:49;101659.69;;;9.87;49.37
28428;BME280;15662;49.128;8.520;2023-02-15T14:17:55;101653.50;;;9.83;49.49
28428;BME280;15662;49.128;8.520;2023-02-15T14:23:56;101645.53;;;9.85;49.65
28428;BME280;15662;49.128;8.520;2023-02-15T14:26:50;101646.44;;;9.87;49.66
28428;BME280;15662;49.128;8.520;2023-02-15T14:32:40;101629.66;;;9.88;49.70
28428;BME280;15662;49.128;8.520;2023-02-15T14:35:19;101629.63;;;9.94;49.49
28428;BME280;15662;49.128;8.520;2023-02-15T14:38:04;101628.72;;;10.00;49.72
28428;BME280;15662;49.128;8.520;2023-02-15T14:44:27;101629.63;;;10.02;49.48
28428;BME280;15662;49.128;8.520;2023-02-15T14:49:46;101629.63;;;9.99;49.62
28428;BME280;15662;49.128;8.520;2023-02-15T14:52:14;101618.19;;;9.95;49.73
28428;BME280;15662;49.128;8.520;2023-02-15T14:55:02;101619.94;;;9.98;49.64
28428;BME280;15662;49.128;8.520;2023-02-15T14:57:33;101626.97;;;10.06;49.51
28428;BME280;15662;49.128;8.520;2023-02-15T15:00:37;101622.53;;;10.08;49.40
28428;BME280;15662;49.128;8.520;2023-02-15T15:03:23;101620.78;;;10.04;49.77
28428;BME280;15662;49.128;8.520;2023-02-15T15:05:54;101624.31;;;10.03;49.65
28428;BME280;15662;49.128;8.520;2023-02-15T15:08:37;101623.41;;;10.12;49.69
28428;BME280;15662;49.128;8.520;2023-02-15T15:11:42;101621.66;;;10.11;49.73
28428;BME280;15662;49.128;8.520;2023-02-15T15:20:58;101617.19;;;10.19;49.80
28428;BME280;15662;49.128;8.520;2023-02-15T15:23:47;101603.06;;;10.22;49.53
28428;BME280;15662;49.128;8.520;2023-02-15T15:26:29;101616.31;;;10.17;49.55
28428;BME280;15662;49.128;8.520;2023-02-15T15:29:00;101614.56;;;10.13;49.76
28428;BME280;15662;49.128;8.520;2023-02-15T15:31:37;101619.88;;;10.13;49.64
28428;BME280;15662;49.128;8.520;2023-02-15T15:34:21;101602.22;;;10.12;49.77
28428;BME280;15662;49.128;8.520;2023-02-15T15:43:34;101603.13;;;10.06;49.78
28428;BME280;15662;49.128;8.520;2023-02-15T15:49:23;101603.13;;;10.06;49.97
28428;BME280;15662;49.128;8.520;2023-02-15T15:51:52;101603.13;;;10.06;49.86
28428;BME280;15662;49.128;8.520;2023-02-15T15:54:24;101614.59;;;10.12;49.90
28428;BME280;15662;49.128;8.520;2023-02-15T15:57:02;101607.53;;;10.11;50.12
28428;BME280;15662;49.128;8.520;2023-02-15T15:59:32;101596.94;;;10.03;49.84
28428;BME280;15662;49.128;8.520;2023-02-15T16:02:15;101599.56;;;10.09;49.91
28428;BME280;15662;49.128;8.520;2023-02-15T16:04:46;101599.59;;;10.00;50.05
28428;BME280;15662;49.128;8.520;2023-02-15T16:10:02;101603.16;;;9.94;50.08
28428;BME280;15662;49.128;8.520;2023-02-15T16:12:34;101601.41;;;9.93;50.27
28428;BME280;15662;49.128;8.520;2023-02-15T16:15:18;101598.72;;;9.95;50.12
28428;BME280;15662;49.128;8.520;2023-02-15T16:17:52;101602.34;;;9.74;50.30
28428;BME280;15662;49.128;8.520;2023-02-15T16:20:29;101609.38;;;9.90;50.10
28428;BME280;15662;49.128;8.520;2023-02-15T16:29:23;101604.06;;;9.89;50.15
28428;BME280;15662;49.128;8.520;2023-02-15T16:32:27;101608.47;;;9.88;50.20
28428;BME280;15662;49.128;8.520;2023-02-15T16:35:01;101612.91;;;9.86;50.11
28428;BME280;15662;49.128;8.520;2023-02-15T16:37:34;101608.47;;;9.85;50.01
28428;BME280;15662;49.128;8.520;2023-02-15T16:40:02;101612.88;;;9.85;50.04
28428;BME280;15662;49.128;8.520;2023-02-15T16:42:30;101612.03;;;9.78;50.01
28428;BME280;15662;49.128;8.520;2023-02-15T16:45:09;101605.88;;;9.70;50.22
28428;BME280;15662;49.128;8.520;2023-02-15T16:47:43;101617.38;;;9.66;50.21
28428;BME280;15662;49.128;8.520;2023-02-15T16:50:34;101602.41;;;9.48;49.86
28428;BME280;15662;49.128;8.520;2023-02-15T16:53:05;101611.22;;;9.39;50.14